Time;durP1;ratioP1;P1;durP2;ratioP2;P2;SDS_P1;SDS_P2;PMS_P1;PMS_P2;Temp;Humidity;BMP_temperature;BMP_pressure;BME280_temperature;BME280_humidity;BME280_pressure;Samples;Min_cycle;Max_cycle;Signal;HPM_P1;HPM_P2
2023/04/05 00:00:39;;;;;;;0.90;0.90;;;;;;;;;;5099371;28;20257;-83
2023/04/05 00:03:05;;;;;;;0.80;0.80;;;;;;;;;;5099133;28;20194;-83
2023/04/05 00:05:33;;;;;;;0.87;0.87;;;;;;;;;;5089645;28;20179;-84
2023/04/05 00:08:02;;;;;;;0.90;0.90;;;;;;;;;;5080579;28;20266;-83
2023/04/05 00:10:28;;;;;;;0.93;0.93;;;;;;;;;;5079787;28;20185;-84
2023/04/05 00:12:54;;;;;;;0.80;0.80;;;;;;;;;;5079089;28;20640;-84
2023/04/05 00:15:21;;;;;;;0.70;0.70;;;;;;;;;;5079446;28;20265;-83
2023/04/05 00:17:47;;;;;;;0.87;0.87;;;;;;;;;;5079462;28;20177;-84
2023/04/05 00:20:13;;;;;;;0.80;0.80;;;;;;;;;;5079249;28;20275;-84
2023/04/05 00:22:42;;;;;;;0.80;0.80;;;;;;;;;;5078768;28;20225;-84
2023/04/05 00:25:08;;;;;;;0.80;0.80;;;;;;;;;;5079393;28;20543;-83
2023/04/05 00:27:34;;;;;;;0.90;0.90;;;;;;;;;;5079338;28;20220;-83
2023/04/05 00:30:00;;;;;;;0.73;0.73;;;;;;;;;;5079444;28;20202;-84
2023/04/05 00:32:26;;;;;;;1.00;1.00;;;;;;;;;;5078753;28;20183;-84
2023/04/05 00:34:52;;;;;;;0.80;0.80;;;;;;;;;;5079459;28;20288;-84
2023/04/05 00:37:18;;;;;;;0.80;0.80;;;;;;;;;;5079793;28;20173;-84
2023/04/05 00:39:44;;;;;;;0.90;0.90;;;;;;;;;;5077514;28;20250;-83
2023/04/05 00:42:10;;;;;;;0.80;0.80;;;;;;;;;;5077705;28;20186;-84
2023/04/05 00:44:37;;;;;;;0.80;0.80;;;;;;;;;;5078416;28;20210;-84
2023/04/05 00:47:06;;;;;;;0.87;0.87;;;;;;;;;;5078742;28;20174;-84
2023/04/05 00:49:34;;;;;;;0.83;0.83;;;;;;;;;;5079763;28;20646;-84
2023/04/05 00:52:00;;;;;;;0.90;0.90;;;;;;;;;;5079859;28;20170;-83
2023/04/05 00:54:30;;;;;;;0.87;0.87;;;;;;;;;;5078880;28;20252;-84
2023/04/05 00:56:56;;;;;;;0.80;0.80;;;;;;;;;;5080260;28;20551;-83
2023/04/05 00:59:22;;;;;;;0.87;0.87;;;;;;;;;;5079914;28;20182;-83
2023/04/05 01:01:58;;;;;;;0.90;0.90;;;;;;;;;;5079632;28;20185;-84
2023/04/05 01:04:26;;;;;;;0.80;0.80;;;;;;;;;;5080139;28;20250;-84
2023/04/05 01:07:02;;;;;;;0.80;0.80;;;;;;;;;;5080784;28;20194;-83
2023/04/05 01:09:37;;;;;;;0.80;0.80;;;;;;;;;;5083258;28;20178;-84
2023/04/05 01:12:05;;;;;;;0.80;0.80;;;;;;;;;;5087706;28;20185;-84
2023/04/05 01:14:32;;;;;;;0.80;0.80;;;;;;;;;;5097157;28;20570;-83
2023/04/05 01:16:58;;;;;;;0.90;0.90;;;;;;;;;;5094585;28;20182;-83
2023/04/05 01:19:26;;;;;;;0.73;0.73;;;;;;;;;;5077502;28;20181;-82
2023/04/05 01:22:14;;;;;;;0.90;0.90;;;;;;;;;;5078067;28;20170;-83
2023/04/05 01:25:02;;;;;;;1.00;1.00;;;;;;;;;;5076692;28;20281;-83
2023/04/05 01:27:48;;;;;;;0.80;0.80;;;;;;;;;;5077170;28;20183;-83
2023/04/05 01:30:20;;;;;;;0.90;0.90;;;;;;;;;;5077213;28;20182;-83
2023/04/05 01:32:52;;;;;;;0.80;0.80;;;;;;;;;;5081470;28;20533;-83
2023/04/05 01:35:18;;;;;;;0.80;0.80;;;;;;;;;;5082652;28;20270;-83
2023/04/05 01:37:48;;;;;;;0.90;0.90;;;;;;;;;;5045158;28;1075297;-83
2023/04/05 01:40:14;;;;;;;0.80;0.80;;;;;;;;;;5082953;28;20271;-83
2023/04/05 01:42:43;;;;;;;0.80;0.80;;;;;;;;;;5082744;28;20649;-83
2023/04/05 01:45:09;;;;;;;0.90;0.90;;;;;;;;;;5083596;28;20206;-84
2023/04/05 01:47:35;;;;;;;0.83;0.83;;;;;;;;;;5082802;28;20183;-83
2023/04/05 01:50:01;;;;;;;0.90;0.90;;;;;;;;;;5084709;28;20186;-83
2023/04/05 01:52:27;;;;;;;0.90;0.90;;;;;;;;;;5083608;28;20629;-83
2023/04/05 01:54:53;;;;;;;0.90;0.90;;;;;;;;;;5083775;28;20205;-82
2023/04/05 01:57:19;;;;;;;0.80;0.80;;;;;;;;;;5082934;28;20170;-84
2023/04/05 01:59:45;;;;;;;0.80;0.80;;;;;;;;;;5078497;28;20210;-83
2023/04/05 02:02:11;;;;;;;0.80;0.80;;;;;;;;;;5078922;28;20217;-83
2023/04/05 02:04:37;;;;;;;1.00;1.00;;;;;;;;;;5078456;28;20190;-83
2023/04/05 02:07:02;;;;;;;0.80;0.80;;;;;;;;;;5079276;28;20193;-84
2023/04/05 02:09:28;;;;;;;0.83;0.83;;;;;;;;;;5078419;28;20250;-84
2023/04/05 02:11:55;;;;;;;0.90;0.90;;;;;;;;;;5078922;28;20174;-84
2023/04/05 02:14:21;;;;;;;0.90;0.90;;;;;;;;;;5077411;28;20250;-84
2023/04/05 02:16:47;;;;;;;0.80;0.80;;;;;;;;;;5077765;28;20261;-83
2023/04/05 02:19:14;;;;;;;0.87;0.87;;;;;;;;;;5077933;28;20232;-84
2023/04/05 02:21:40;;;;;;;0.80;0.80;;;;;;;;;;5078286;28;20274;-85
2023/04/05 02:24:06;;;;;;;0.80;0.80;;;;;;;;;;5077471;28;20206;-84
2023/04/05 02:26:33;;;;;;;0.80;0.80;;;;;;;;;;5079086;28;20206;-84
2023/04/05 02:28:59;;;;;;;0.80;0.80;;;;;;;;;;5079034;28;20386;-84
2023/04/05 02:31:25;;;;;;;0.80;0.80;;;;;;;;;;5078399;28;20635;-84
2023/04/05 02:33:51;;;;;;;0.80;0.80;;;;;;;;;;5078306;28;20197;-84
2023/04/05 02:36:17;;;;;;;0.90;0.90;;;;;;;;;;5079051;28;20170;-83
2023/04/05 02:38:43;;;;;;;0.90;0.90;;;;;;;;;;5078340;28;20198;-84
2023/04/05 02:41:10;;;;;;;0.90;0.90;;;;;;;;;;5078817;28;20220;-83
2023/04/05 02:43:36;;;;;;;0.80;0.80;;;;;;;;;;5078150;28;20191;-84
2023/04/05 02:46:03;;;;;;;0.90;0.90;;;;;;;;;;5085308;28;20182;-84
2023/04/05 02:48:29;;;;;;;0.90;0.90;;;;;;;;;;5096973;28;20166;-84
2023/04/05 02:50:55;;;;;;;0.80;0.80;;;;;;;;;;5096414;28;20189;-84
2023/04/05 02:53:21;;;;;;;0.87;0.87;;;;;;;;;;5076945;28;20198;-84
2023/04/05 02:55:54;;;;;;;0.90;0.90;;;;;;;;;;5078828;28;20189;-84
2023/04/05 02:58:20;;;;;;;0.80;0.80;;;;;;;;;;5078424;28;20392;-84
2023/04/05 03:00:54;;;;;;;0.80;0.80;;;;;;;;;;5080336;28;20568;-83
2023/04/05 03:03:21;;;;;;;0.80;0.80;;;;;;;;;;5078116;28;20226;-83
2023/04/05 03:05:48;;;;;;;0.90;0.90;;;;;;;;;;5079597;28;20175;-83
2023/04/05 03:08:18;;;;;;;0.90;0.90;;;;;;;;;;5079310;28;20181;-84
2023/04/05 03:10:47;;;;;;;0.90;0.90;;;;;;;;;;5079373;28;20281;-84
2023/04/05 03:13:16;;;;;;;0.80;0.80;;;;;;;;;;5077699;28;20289;-84
2023/04/05 03:15:41;;;;;;;0.80;0.80;;;;;;;;;;5078509;28;20177;-84
2023/04/05 03:18:08;;;;;;;0.80;0.80;;;;;;;;;;5083488;28;20179;-84
2023/04/05 03:20:38;;;;;;;0.90;0.90;;;;;;;;;;5080968;28;20226;-84
2023/04/05 03:23:05;;;;;;;0.83;0.83;;;;;;;;;;5078496;28;20210;-84
2023/04/05 03:25:31;;;;;;;0.90;0.90;;;;;;;;;;5080899;28;20174;-84
2023/04/05 03:27:57;;;;;;;0.90;0.90;;;;;;;;;;5083233;28;20538;-84
2023/04/05 03:30:23;;;;;;;0.83;0.83;;;;;;;;;;5083531;28;20257;-84
2023/04/05 03:32:49;;;;;;;0.80;0.80;;;;;;;;;;5084011;28;20174;-84
2023/04/05 03:35:17;;;;;;;0.80;0.80;;;;;;;;;;5088289;28;20173;-85
2023/04/05 03:37:44;;;;;;;0.90;0.90;;;;;;;;;;5097601;28;20181;-85
2023/04/05 03:40:10;;;;;;;0.80;0.80;;;;;;;;;;5097721;28;20229;-84
2023/04/05 03:42:36;;;;;;;1.00;1.00;;;;;;;;;;5097381;28;20169;-85
2023/04/05 03:45:04;;;;;;;0.80;0.80;;;;;;;;;;5091119;28;20629;-85
2023/04/05 03:47:30;;;;;;;0.90;0.90;;;;;;;;;;5085153;28;20190;-85
2023/04/05 03:49:56;;;;;;;0.80;0.80;;;;;;;;;;5084103;28;20641;-84
2023/04/05 03:52:22;;;;;;;0.90;0.90;;;;;;;;;;5081748;28;20174;-84
2023/04/05 03:54:48;;;;;;;0.80;0.80;;;;;;;;;;5081009;28;20244;-85
2023/04/05 03:57:14;;;;;;;0.90;0.90;;;;;;;;;;5083507;28;20630;-84
2023/04/05 03:59:41;;;;;;;0.80;0.80;;;;;;;;;;5082560;28;20210;-85
2023/04/05 04:02:07;;;;;;;0.90;0.90;;;;;;;;;;5083157;28;20178;-85
2023/04/05 04:04:33;;;;;;;0.90;0.90;;;;;;;;;;5081653;28;20669;-84
2023/04/05 04:06:59;;;;;;;0.90;0.90;;;;;;;;;;5084397;28;20311;-85
2023/04/05 04:09:26;;;;;;;0.90;0.90;;;;;;;;;;5083786;28;20183;-85
2023/04/05 04:11:52;;;;;;;0.87;0.87;;;;;;;;;;5086060;28;20175;-85
2023/04/05 04:14:18;;;;;;;0.90;0.90;;;;;;;;;;5084424;28;20285;-85
2023/04/05 04:16:44;;;;;;;0.80;0.80;;;;;;;;;;5084579;28;20182;-84
2023/04/05 04:19:10;;;;;;;0.90;0.90;;;;;;;;;;5085078;28;20175;-85
2023/04/05 04:21:38;;;;;;;0.80;0.80;;;;;;;;;;5084948;28;20221;-85
2023/04/05 04:24:04;;;;;;;0.90;0.90;;;;;;;;;;5085081;28;20198;-85
2023/04/05 04:26:36;;;;;;;0.90;0.90;;;;;;;;;;5093917;28;20173;-84
2023/04/05 04:29:05;;;;;;;0.90;0.90;;;;;;;;;;5092507;28;20621;-85
2023/04/05 04:31:32;;;;;;;0.93;0.93;;;;;;;;;;5083309;28;20194;-85
2023/04/05 04:34:01;;;;;;;0.90;0.90;;;;;;;;;;5083307;28;20204;-84
2023/04/05 04:36:33;;;;;;;0.80;0.80;;;;;;;;;;5083573;28;20182;-85
2023/04/05 04:39:04;;;;;;;0.80;0.80;;;;;;;;;;5084166;28;20194;-84
2023/04/05 04:41:32;;;;;;;0.80;0.80;;;;;;;;;;5083865;28;20275;-83
2023/04/05 04:44:01;;;;;;;0.90;0.90;;;;;;;;;;5083047;28;20254;-84
2023/04/05 04:46:29;;;;;;;0.80;0.80;;;;;;;;;;5082328;28;20611;-84
2023/04/05 04:48:56;;;;;;;0.80;0.80;;;;;;;;;;5082677;28;20178;-85
2023/04/05 04:51:22;;;;;;;0.80;0.80;;;;;;;;;;5083294;28;20182;-84
2023/04/05 04:53:48;;;;;;;1.00;1.00;;;;;;;;;;5092523;28;20226;-85
2023/04/05 04:56:14;;;;;;;0.90;0.90;;;;;;;;;;5097822;28;20178;-84
2023/04/05 04:58:40;;;;;;;0.87;0.87;;;;;;;;;;5088164;28;20241;-84
2023/04/05 05:01:10;;;;;;;0.87;0.87;;;;;;;;;;5083803;28;20214;-84
2023/04/05 05:03:39;;;;;;;0.90;0.90;;;;;;;;;;5082606;28;20195;-84
2023/04/05 05:06:06;;;;;;;1.00;1.00;;;;;;;;;;5083484;28;20186;-84
2023/04/05 05:08:32;;;;;;;0.80;0.80;;;;;;;;;;5083163;28;20205;-83
2023/04/05 05:10:58;;;;;;;0.80;0.80;;;;;;;;;;5091600;28;20178;-84
2023/04/05 05:13:24;;;;;;;0.90;0.90;;;;;;;;;;5095596;28;20178;-84
2023/04/05 05:15:50;;;;;;;0.80;0.80;;;;;;;;;;5096193;28;20201;-83
2023/04/05 05:18:16;;;;;;;0.90;0.90;;;;;;;;;;5096159;28;20234;-84
2023/04/05 05:20:42;;;;;;;0.90;0.90;;;;;;;;;;5096264;28;20229;-84
2023/04/05 05:23:08;;;;;;;0.90;0.90;;;;;;;;;;5095141;28;20174;-84
2023/04/05 05:25:35;;;;;;;0.90;0.90;;;;;;;;;;5095460;28;20165;-83
2023/04/05 05:28:01;;;;;;;0.80;0.80;;;;;;;;;;5085876;28;20167;-84
2023/04/05 05:30:27;;;;;;;0.80;0.80;;;;;;;;;;5072366;28;20183;-85
2023/04/05 05:32:53;;;;;;;0.90;0.90;;;;;;;;;;5063068;28;20218;-84
2023/04/05 05:35:19;;;;;;;0.80;0.80;;;;;;;;;;5060054;28;20168;-85
2023/04/05 05:37:45;;;;;;;0.90;0.90;;;;;;;;;;5060908;28;20289;-84
2023/04/05 05:40:12;;;;;;;0.83;0.83;;;;;;;;;;5060455;28;20218;-84
2023/04/05 05:42:38;;;;;;;0.80;0.80;;;;;;;;;;5058760;28;20179;-85
2023/04/05 05:45:05;;;;;;;0.90;0.90;;;;;;;;;;5059583;28;20182;-87
2023/04/05 05:47:31;;;;;;;0.90;0.90;;;;;;;;;;5070109;28;20167;-81
2023/04/05 05:49:57;;;;;;;0.80;0.80;;;;;;;;;;5076914;28;20163;-84
2023/04/05 05:52:23;;;;;;;0.80;0.80;;;;;;;;;;5084677;28;20182;-85
2023/04/05 05:54:49;;;;;;;0.80;0.80;;;;;;;;;;5085304;28;20216;-85
2023/04/05 05:57:15;;;;;;;0.83;0.83;;;;;;;;;;5078470;28;20182;-85
2023/04/05 05:59:41;;;;;;;0.90;0.90;;;;;;;;;;5071396;28;20210;-84
2023/04/05 06:02:07;;;;;;;0.90;0.90;;;;;;;;;;5075698;28;20174;-85
2023/04/05 06:04:34;;;;;;;0.83;0.83;;;;;;;;;;5077189;28;20197;-84
2023/04/05 06:07:00;;;;;;;0.90;0.90;;;;;;;;;;5076816;28;20171;-85
2023/04/05 06:09:27;;;;;;;0.90;0.90;;;;;;;;;;5077984;28;20175;-85
2023/04/05 06:11:53;;;;;;;0.90;0.90;;;;;;;;;;5077101;28;20688;-84
2023/04/05 06:14:20;;;;;;;0.90;0.90;;;;;;;;;;5076984;28;20225;-84
2023/04/05 06:16:46;;;;;;;0.80;0.80;;;;;;;;;;5078760;28;20166;-85
2023/04/05 06:19:12;;;;;;;0.80;0.80;;;;;;;;;;5076277;28;20175;-83
2023/04/05 06:21:38;;;;;;;0.80;0.80;;;;;;;;;;5077210;28;20681;-85
2023/04/05 06:24:04;;;;;;;0.80;0.80;;;;;;;;;;5074570;28;20607;-83
2023/04/05 06:26:31;;;;;;;0.90;0.90;;;;;;;;;;5075994;28;20182;-83
2023/04/05 06:28:57;;;;;;;0.90;0.90;;;;;;;;;;5076207;28;20276;-83
2023/04/05 06:31:26;;;;;;;0.83;0.83;;;;;;;;;;5076017;28;20414;-84
2023/04/05 06:33:52;;;;;;;0.80;0.80;;;;;;;;;;5075608;28;20512;-83
2023/04/05 06:36:18;;;;;;;0.90;0.90;;;;;;;;;;5076694;28;20181;-83
2023/04/05 06:38:45;;;;;;;0.80;0.80;;;;;;;;;;5075725;28;20190;-84
2023/04/05 06:41:10;;;;;;;0.90;0.90;;;;;;;;;;5077610;28;20210;-83
2023/04/05 06:43:36;;;;;;;0.80;0.80;;;;;;;;;;5076428;28;20253;-83
2023/04/05 06:46:02;;;;;;;0.80;0.80;;;;;;;;;;5077325;28;20236;-82
2023/04/05 06:48:28;;;;;;;0.90;0.90;;;;;;;;;;5076548;28;20668;-82
2023/04/05 06:50:58;;;;;;;0.90;0.90;;;;;;;;;;5076655;28;20185;-82
2023/04/05 06:53:26;;;;;;;0.93;0.93;;;;;;;;;;5077297;28;20694;-83
2023/04/05 06:55:52;;;;;;;0.87;0.87;;;;;;;;;;5076460;28;20235;-83
2023/04/05 06:58:18;;;;;;;0.80;0.80;;;;;;;;;;5073224;28;20179;-84
2023/04/05 07:00:44;;;;;;;0.80;0.80;;;;;;;;;;5065876;28;20689;-82
2023/04/05 07:03:10;;;;;;;0.80;0.80;;;;;;;;;;5068107;28;20194;-83
2023/04/05 07:05:36;;;;;;;0.80;0.80;;;;;;;;;;5076642;28;20170;-82
2023/04/05 07:08:02;;;;;;;0.80;0.80;;;;;;;;;;5077896;28;20183;-83
2023/04/05 07:10:28;;;;;;;0.80;0.80;;;;;;;;;;5078102;28;20175;-83
2023/04/05 07:12:54;;;;;;;0.73;0.73;;;;;;;;;;5060295;28;20202;-83
2023/04/05 07:15:20;;;;;;;0.90;0.90;;;;;;;;;;5056961;28;20424;-83
2023/04/05 07:17:46;;;;;;;0.80;0.80;;;;;;;;;;5059022;28;20281;-83
2023/04/05 07:20:13;;;;;;;0.90;0.90;;;;;;;;;;5060096;28;20211;-83
2023/04/05 07:22:39;;;;;;;0.70;0.70;;;;;;;;;;5058094;28;20195;-80
2023/04/05 07:25:07;;;;;;;0.60;0.60;;;;;;;;;;5058212;28;20175;-82
2023/04/05 07:27:33;;;;;;;0.63;0.63;;;;;;;;;;5063990;28;20224;-82
2023/04/05 07:30:00;;;;;;;0.70;0.70;;;;;;;;;;5068802;28;20190;-83
2023/04/05 07:32:26;;;;;;;0.60;0.60;;;;;;;;;;5064839;28;20171;-83
2023/04/05 07:34:52;;;;;;;0.60;0.60;;;;;;;;;;5067974;28;20247;-82
2023/04/05 07:37:18;;;;;;;0.57;0.57;;;;;;;;;;5066364;28;20267;-83
2023/04/05 07:39:44;;;;;;;0.50;0.50;;;;;;;;;;5066051;28;20237;-84
2023/04/05 07:42:10;;;;;;;0.40;0.40;;;;;;;;;;5067196;28;20174;-83
2023/04/05 07:44:36;;;;;;;0.40;0.40;;;;;;;;;;5076503;28;20247;-85
2023/04/05 07:47:02;;;;;;;0.40;0.40;;;;;;;;;;5081013;28;20174;-82
2023/04/05 07:49:29;;;;;;;0.60;0.60;;;;;;;;;;5080387;28;20254;-85
2023/04/05 07:51:56;;;;;;;0.40;0.40;;;;;;;;;;5081338;28;20578;-83
2023/04/05 07:54:22;;;;;;;0.50;0.50;;;;;;;;;;5080827;28;20801;-82
2023/04/05 07:56:50;;;;;;;0.60;0.60;;;;;;;;;;5081405;28;20239;-82
2023/04/05 07:59:17;;;;;;;0.40;0.40;;;;;;;;;;5081700;28;20238;-81
2023/04/05 08:01:42;;;;;;;0.50;0.50;;;;;;;;;;5079450;28;20217;-79
2023/04/05 08:04:09;;;;;;;0.60;0.60;;;;;;;;;;5079267;28;20195;-80
2023/04/05 08:06:35;;;;;;;0.50;0.50;;;;;;;;;;5079766;28;20183;-80
2023/04/05 08:09:04;;;;;;;0.40;0.40;;;;;;;;;;5079267;28;20571;-80
2023/04/05 08:11:31;;;;;;;0.37;0.37;;;;;;;;;;5081027;28;20179;-80
2023/04/05 08:13:57;;;;;;;0.30;0.30;;;;;;;;;;5080592;28;20258;-80
2023/04/05 08:16:23;;;;;;;0.40;0.40;;;;;;;;;;5081955;28;20719;-80
2023/04/05 08:18:49;;;;;;;0.30;0.30;;;;;;;;;;5084164;28;20175;-83
2023/04/05 08:21:15;;;;;;;0.40;0.40;;;;;;;;;;5071532;28;20203;-81
2023/04/05 08:23:41;;;;;;;0.30;0.30;;;;;;;;;;5061443;28;20680;-80
2023/04/05 08:26:07;;;;;;;0.30;0.30;;;;;;;;;;5064381;28;20194;-83
2023/04/05 08:28:33;;;;;;;0.50;0.50;;;;;;;;;;5086564;28;20268;-80
2023/04/05 08:30:59;;;;;;;0.40;0.40;;;;;;;;;;5094904;28;20193;-78
2023/04/05 08:33:27;;;;;;;0.40;0.40;;;;;;;;;;5081690;28;20682;-79
2023/04/05 08:35:53;;;;;;;0.40;0.40;;;;;;;;;;5077191;28;20862;-81
2023/04/05 08:38:19;;;;;;;0.40;0.40;;;;;;;;;;5071577;28;20724;-81
2023/04/05 08:40:46;;;;;;;0.40;0.40;;;;;;;;;;5071226;28;20210;-82
2023/04/05 08:43:15;;;;;;;0.37;0.37;;;;;;;;;;5071847;28;20214;-81
2023/04/05 08:45:47;;;;;;;0.47;0.47;;;;;;;;;;5073537;28;20247;-81
2023/04/05 08:48:13;;;;;;;0.40;0.40;;;;;;;;;;5069868;28;20265;-81
2023/04/05 08:50:39;;;;;;;0.50;0.50;;;;;;;;;;5069296;28;20241;-83
2023/04/05 08:53:09;;;;;;;0.40;0.40;;;;;;;;;;5068368;28;20206;-80
2023/04/05 08:55:35;;;;;;;0.50;0.50;;;;;;;;;;5058965;28;20179;-78
2023/04/05 08:58:03;;;;;;;0.40;0.40;;;;;;;;;;5072803;28;20175;-80
2023/04/05 09:00:29;;;;;;;0.43;0.43;;;;;;;;;;5064245;28;20563;-81
2023/04/05 09:02:57;;;;;;;0.50;0.50;;;;;;;;;;5067908;28;20202;-82
2023/04/05 09:05:23;;;;;;;0.50;0.50;;;;;;;;;;5062025;28;20199;-82
2023/04/05 09:07:50;;;;;;;0.40;0.40;;;;;;;;;;5069091;28;20572;-79
2023/04/05 09:10:18;;;;;;;0.40;0.40;;;;;;;;;;5075383;28;20174;-84
2023/04/05 09:12:45;;;;;;;0.30;0.30;;;;;;;;;;5068270;28;20182;-82
2023/04/05 09:15:11;;;;;;;0.40;0.40;;;;;;;;;;5073029;28;20187;-83
2023/04/05 09:17:38;;;;;;;0.40;0.40;;;;;;;;;;5073546;28;20175;-78
2023/04/05 09:20:05;;;;;;;0.40;0.40;;;;;;;;;;5071737;28;20807;-80
2023/04/05 09:22:31;;;;;;;0.43;0.43;;;;;;;;;;5055353;28;20205;-82
2023/04/05 09:24:57;;;;;;;0.43;0.43;;;;;;;;;;5067309;28;20737;-82
2023/04/05 09:27:23;;;;;;;0.50;0.50;;;;;;;;;;5060255;28;20171;-83
2023/04/05 09:29:49;;;;;;;0.30;0.30;;;;;;;;;;5072456;28;20175;-83
2023/04/05 09:32:20;;;;;;;0.40;0.40;;;;;;;;;;5062342;28;20186;-83
2023/04/05 09:34:46;;;;;;;0.37;0.37;;;;;;;;;;5076349;28;20195;-84
2023/04/05 09:37:21;;;;;;;0.40;0.40;;;;;;;;;;5075768;28;20174;-82
2023/04/05 09:39:49;;;;;;;0.30;0.30;;;;;;;;;;5056223;28;20214;-83
2023/04/05 09:42:16;;;;;;;0.30;0.30;;;;;;;;;;5061439;28;20179;-82
2023/04/05 09:44:56;;;;;;;0.30;0.30;;;;;;;;;;5075391;28;20202;-84
2023/04/05 09:47:29;;;;;;;0.37;0.37;;;;;;;;;;5061164;28;20258;-83
2023/04/05 09:49:55;;;;;;;0.40;0.40;;;;;;;;;;5067894;28;20175;-81
2023/04/05 09:52:22;;;;;;;0.40;0.40;;;;;;;;;;5066896;28;20179;-84
2023/04/05 09:54:49;;;;;;;0.40;0.40;;;;;;;;;;5069772;28;20202;-87
2023/04/05 09:57:17;;;;;;;0.50;0.50;;;;;;;;;;5079148;28;20206;-84
2023/04/05 09:59:43;;;;;;;0.47;0.47;;;;;;;;;;5063150;28;20171;-85
2023/04/05 10:02:10;;;;;;;0.30;0.30;;;;;;;;;;5065847;28;20194;-88
2023/04/05 10:04:40;;;;;;;0.40;0.40;;;;;;;;;;5081425;28;20556;-85
2023/04/05 10:07:08;;;;;;;0.40;0.40;;;;;;;;;;5067905;28;20563;-87
2023/04/05 10:09:34;;;;;;;0.40;0.40;;;;;;;;;;5080914;28;20178;-87
2023/04/05 10:12:00;;;;;;;0.50;0.50;;;;;;;;;;5077627;28;20175;-86
2023/04/05 10:14:26;;;;;;;0.40;0.40;;;;;;;;;;5064770;28;20187;-85
2023/04/05 10:17:10;;;;;;;0.30;0.30;;;;;;;;;;5076493;28;20178;-85
2023/04/05 10:19:57;;;;;;;0.50;0.50;;;;;;;;;;5059872;28;20224;-86
2023/04/05 10:22:27;;;;;;;0.40;0.40;;;;;;;;;;5057076;28;20185;-84
2023/04/05 10:24:57;;;;;;;0.60;0.60;;;;;;;;;;5057473;28;20195;-84
2023/04/05 10:27:30;;;;;;;0.50;0.50;;;;;;;;;;5056591;28;20549;-86
2023/04/05 10:30:09;;;;;;;0.40;0.40;;;;;;;;;;5056712;28;20514;-85
2023/04/05 10:32:37;;;;;;;0.40;0.40;;;;;;;;;;5055897;28;20182;-89
2023/04/05 10:35:10;;;;;;;0.30;0.30;;;;;;;;;;5057025;28;20206;-85
2023/04/05 10:37:36;;;;;;;0.30;0.30;;;;;;;;;;5073872;28;20179;-87
2023/04/05 10:40:03;;;;;;;0.30;0.30;;;;;;;;;;5077189;28;20206;-88
2023/04/05 10:42:35;;;;;;;0.53;0.53;;;;;;;;;;5070865;28;20182;-86
2023/04/05 10:45:03;;;;;;;0.40;0.40;;;;;;;;;;5057793;28;20190;-86
2023/04/05 10:47:31;;;;;;;0.40;0.40;;;;;;;;;;5057412;28;20273;-85
2023/04/05 10:49:59;;;;;;;0.40;0.40;;;;;;;;;;5057076;28;20175;-85
2023/04/05 10:52:26;;;;;;;0.40;0.40;;;;;;;;;;5055874;28;20175;-85
2023/04/05 10:54:52;;;;;;;0.33;0.33;;;;;;;;;;5055835;28;20198;-85
2023/04/05 10:57:18;;;;;;;0.40;0.40;;;;;;;;;;5071309;28;20177;-85
2023/04/05 10:59:46;;;;;;;0.30;0.30;;;;;;;;;;5076311;28;20645;-88
2023/04/05 11:02:13;;;;;;;0.30;0.30;;;;;;;;;;5086998;28;20201;-93
2023/04/05 11:04:40;;;;;;;0.40;0.40;;;;;;;;;;5076636;28;20194;-93
2023/04/05 11:07:24;;;;;;;0.30;0.30;;;;;;;;;;5077212;28;20164;-87
2023/04/05 11:09:51;;;;;;;0.40;0.40;;;;;;;;;;5074117;28;20194;-87
2023/04/05 11:12:17;;;;;;;0.30;0.30;;;;;;;;;;5084421;28;20171;-88
2023/04/05 11:14:43;;;;;;;0.40;0.40;;;;;;;;;;5084711;28;20212;-87
2023/04/05 11:17:28;;;;;;;0.40;0.40;;;;;;;;;;5082033;28;20522;-87
2023/04/05 11:20:02;;;;;;;0.40;0.40;;;;;;;;;;5070984;28;20202;-87
2023/04/05 11:22:28;;;;;;;0.50;0.50;;;;;;;;;;5080453;28;20171;-86
2023/04/05 11:25:00;;;;;;;0.40;0.40;;;;;;;;;;5078482;28;20201;-86
2023/04/05 11:27:29;;;;;;;0.50;0.50;;;;;;;;;;5090076;28;20186;-86
2023/04/05 11:29:56;;;;;;;0.50;0.50;;;;;;;;;;5075328;28;20254;-86
2023/04/05 11:32:23;;;;;;;0.57;0.57;;;;;;;;;;5085761;28;20164;-88
2023/04/05 11:34:59;;;;;;;0.40;0.40;;;;;;;;;;5072067;28;20202;-87
2023/04/05 11:37:44;;;;;;;0.60;0.60;;;;;;;;;;5086886;28;20188;-87
2023/04/05 11:40:29;;;;;;;0.40;0.40;;;;;;;;;;5092365;28;20213;-89
2023/04/05 11:43:02;;;;;;;0.57;0.57;;;;;;;;;;5079275;28;20199;-87
2023/04/05 11:45:30;;;;;;;0.53;0.53;;;;;;;;;;5085110;28;20209;-86
2023/04/05 11:47:57;;;;;;;0.60;0.60;;;;;;;;;;5069726;28;20183;-87
2023/04/05 11:50:23;;;;;;;0.60;0.60;;;;;;;;;;5070000;28;20345;-88
2023/04/05 11:53:09;;;;;;;0.60;0.60;;;;;;;;;;5063936;28;20171;-88
2023/04/05 11:55:35;;;;;;;0.70;0.70;;;;;;;;;;5056538;28;20186;-86
2023/04/05 11:58:01;;;;;;;0.50;0.50;;;;;;;;;;5056726;28;20183;-85
2023/04/05 12:00:27;;;;;;;0.50;0.50;;;;;;;;;;5057152;28;20241;-86
2023/04/05 12:02:56;;;;;;;0.50;0.50;;;;;;;;;;5056456;28;20195;-86
2023/04/05 12:05:22;;;;;;;0.47;0.47;;;;;;;;;;5068154;28;20187;-89
2023/04/05 12:07:54;;;;;;;0.43;0.43;;;;;;;;;;5098657;28;20189;-89
2023/04/05 12:10:20;;;;;;;0.50;0.50;;;;;;;;;;5096983;28;20181;-86
2023/04/05 12:12:47;;;;;;;0.40;0.40;;;;;;;;;;5085054;28;20254;-88
2023/04/05 12:15:16;;;;;;;0.50;0.50;;;;;;;;;;5079909;28;20169;-86
2023/04/05 12:17:48;;;;;;;0.50;0.50;;;;;;;;;;5081811;28;20174;-89
2023/04/05 12:20:16;;;;;;;0.60;0.60;;;;;;;;;;5063119;28;20260;-86
2023/04/05 12:22:43;;;;;;;0.50;0.50;;;;;;;;;;5062511;28;20195;-86
2023/04/05 12:25:10;;;;;;;0.60;0.60;;;;;;;;;;5061125;28;20229;-86
2023/04/05 12:27:36;;;;;;;0.43;0.43;;;;;;;;;;5061707;28;20179;-86
2023/04/05 12:30:06;;;;;;;0.40;0.40;;;;;;;;;;5077370;28;20179;-86
2023/04/05 12:32:42;;;;;;;0.53;0.53;;;;;;;;;;5062801;28;20183;-86
2023/04/05 12:35:13;;;;;;;0.50;0.50;;;;;;;;;;5066389;28;20637;-86
2023/04/05 12:37:40;;;;;;;0.50;0.50;;;;;;;;;;5065350;28;20199;-85
2023/04/05 12:40:06;;;;;;;0.60;0.60;;;;;;;;;;5077328;28;20221;-85
2023/04/05 12:42:36;;;;;;;0.60;0.60;;;;;;;;;;5071474;28;20197;-87
2023/04/05 12:45:03;;;;;;;0.50;0.50;;;;;;;;;;5085773;28;20579;-85
2023/04/05 12:47:34;;;;;;;0.60;0.60;;;;;;;;;;5069909;28;20228;-87
2023/04/05 12:50:13;;;;;;;0.43;0.43;;;;;;;;;;5081373;28;20178;-85
2023/04/05 12:52:50;;;;;;;0.60;0.60;;;;;;;;;;5075163;28;20546;-84
2023/04/05 12:55:16;;;;;;;0.60;0.60;;;;;;;;;;5079993;28;20170;-86
2023/04/05 12:57:43;;;;;;;0.53;0.53;;;;;;;;;;5083463;28;20224;-86
2023/04/05 13:00:09;;;;;;;0.50;0.50;;;;;;;;;;5070408;28;20208;-86
2023/04/05 13:02:35;;;;;;;0.60;0.60;;;;;;;;;;5084603;28;20170;-85
2023/04/05 13:05:01;;;;;;;0.60;0.60;;;;;;;;;;5072298;28;20194;-86
2023/04/05 13:07:27;;;;;;;0.50;0.50;;;;;;;;;;5079748;28;20183;-86
2023/04/05 13:09:53;;;;;;;0.50;0.50;;;;;;;;;;5085328;28;20182;-88
2023/04/05 13:12:19;;;;;;;0.50;0.50;;;;;;;;;;5084960;28;20249;-85
2023/04/05 13:14:45;;;;;;;0.60;0.60;;;;;;;;;;5085205;28;20285;-84
2023/04/05 13:17:11;;;;;;;0.50;0.50;;;;;;;;;;5079760;28;20182;-87
2023/04/05 13:19:37;;;;;;;0.50;0.50;;;;;;;;;;5077084;28;20183;-86
2023/04/05 13:22:03;;;;;;;0.60;0.60;;;;;;;;;;5087493;28;20180;-85
2023/04/05 13:24:30;;;;;;;0.70;0.70;;;;;;;;;;5078543;28;20202;-85
2023/04/05 13:26:56;;;;;;;0.47;0.47;;;;;;;;;;5083301;28;20182;-85
2023/04/05 13:29:22;;;;;;;0.60;0.60;;;;;;;;;;5089798;28;20186;-85
2023/04/05 13:31:48;;;;;;;0.63;0.63;;;;;;;;;;5084863;28;20248;-85
2023/04/05 13:34:14;;;;;;;0.60;0.60;;;;;;;;;;5077584;28;20187;-85
2023/04/05 13:36:40;;;;;;;0.63;0.63;;;;;;;;;;5072848;28;20182;-85
2023/04/05 13:39:06;;;;;;;0.60;0.60;;;;;;;;;;5084203;28;20213;-85
2023/04/05 13:41:32;;;;;;;0.70;0.70;;;;;;;;;;5067264;28;20210;-85
2023/04/05 13:43:58;;;;;;;0.70;0.70;;;;;;;;;;5066409;28;20186;-85
2023/04/05 13:46:24;;;;;;;0.60;0.60;;;;;;;;;;5084709;28;20182;-85
2023/04/05 13:48:50;;;;;;;0.60;0.60;;;;;;;;;;5073046;28;20243;-84
2023/04/05 13:51:16;;;;;;;0.60;0.60;;;;;;;;;;5078454;28;20171;-84
2023/04/05 13:53:42;;;;;;;0.60;0.60;;;;;;;;;;5082410;28;20247;-84
2023/04/05 13:56:08;;;;;;;0.60;0.60;;;;;;;;;;5081647;28;20200;-85
2023/04/05 13:58:34;;;;;;;0.60;0.60;;;;;;;;;;5081370;28;20185;-84
2023/04/05 14:01:00;;;;;;;0.70;0.70;;;;;;;;;;5074773;28;20214;-84
2023/04/05 14:03:26;;;;;;;0.60;0.60;;;;;;;;;;5082797;28;20204;-85
2023/04/05 14:05:52;;;;;;;0.57;0.57;;;;;;;;;;5081047;28;20171;-86
2023/04/05 14:08:18;;;;;;;0.50;0.50;;;;;;;;;;5083225;28;20174;-86
2023/04/05 14:10:44;;;;;;;0.50;0.50;;;;;;;;;;5083879;28;20202;-85
2023/04/05 14:13:11;;;;;;;0.60;0.60;;;;;;;;;;5083785;28;20209;-86
2023/04/05 14:15:37;;;;;;;0.60;0.60;;;;;;;;;;5083122;28;20179;-85
2023/04/05 14:18:03;;;;;;;0.50;0.50;;;;;;;;;;5074364;28;20213;-85
2023/04/05 14:20:29;;;;;;;0.50;0.50;;;;;;;;;;5070305;28;20682;-86
2023/04/05 14:22:56;;;;;;;0.50;0.50;;;;;;;;;;5079681;28;20216;-84
2023/04/05 14:25:22;;;;;;;0.50;0.50;;;;;;;;;;5065460;28;20183;-84
2023/04/05 14:27:48;;;;;;;0.50;0.50;;;;;;;;;;5063573;28;20171;-85
2023/04/05 14:30:14;;;;;;;0.50;0.50;;;;;;;;;;5063841;28;20180;-85
2023/04/05 14:32:40;;;;;;;0.50;0.50;;;;;;;;;;5065025;28;20209;-86
2023/04/05 14:35:06;;;;;;;0.50;0.50;;;;;;;;;;5056476;28;20238;-84
2023/04/05 14:37:32;;;;;;;0.40;0.40;;;;;;;;;;5054599;28;20179;-83
2023/04/05 14:39:58;;;;;;;0.53;0.53;;;;;;;;;;5054151;28;20385;-83
2023/04/05 14:42:24;;;;;;;0.43;0.43;;;;;;;;;;5055445;28;20286;-84
2023/04/05 14:44:51;;;;;;;0.50;0.50;;;;;;;;;;5054857;28;20191;-84